Terminal Aerodrome Forecast
Issued by NWS

Home | Current Version | Previous Version | Text Only | Print | Product List | Glossary Off
Versions: 1 2 3 4 5 6 7 8 9 10 11 12 13 14

000
FTUS43 KICT 181100
TAFSLN
TAF
KSLN 181120Z 1812/1912 19007KT P6SM SKC
     FM181900 18013KT P6SM FEW090
     FM190300 VRB06KT P6SM VCTS BKN080CB
     FM190900 33005KT P6SM SCT150=

USA.gov is the U.S. government's official web portal to all federal, state and local government web resources and services.